Time;durP1;ratioP1;P1;durP2;ratioP2;P2;SDS_P1;SDS_P2;PMS_P1;PMS_P2;Temp;Humidity;BMP_temperature;BMP_pressure;BME280_temperature;BME280_humidity;BME280_pressure;Samples;Min_cycle;Max_cycle;Signal;HPM_P1;HPM_P2
2023/12/09 00:01:13;;;;;;;6.35;4.18;;;5.60;99.90;;;;;;4959790;28;20047;-82
2023/12/09 00:03:39;;;;;;;3.17;2.95;;;5.60;99.90;;;;;;4962858;28;20038;-83
2023/12/09 00:06:06;;;;;;;4.95;4.45;;;5.60;99.90;;;;;;4965939;28;20465;-82
2023/12/09 00:08:32;;;;;;;3.58;3.30;;;5.60;99.90;;;;;;4966377;28;20050;-82
2023/12/09 00:10:58;;;;;;;7.15;3.47;;;5.60;99.90;;;;;;4962293;28;20035;-81
2023/12/09 00:13:24;;;;;;;3.33;2.75;;;5.60;99.90;;;;;;4963764;28;20098;-80
2023/12/09 00:15:50;;;;;;;4.95;4.40;;;5.50;99.90;;;;;;4964826;28;20035;-83
2023/12/09 00:18:16;;;;;;;2.97;2.70;;;5.60;99.90;;;;;;4966370;28;20041;-83
2023/12/09 00:20:43;;;;;;;2.72;2.53;;;5.60;99.90;;;;;;4961186;28;20035;-83
2023/12/09 00:23:09;;;;;;;3.08;2.88;;;5.60;99.90;;;;;;4960705;28;20032;-83
2023/12/09 00:25:35;;;;;;;3.95;3.10;;;5.60;99.90;;;;;;4947155;28;20047;-83
2023/12/09 00:28:01;;;;;;;2.95;2.70;;;5.60;99.90;;;;;;4967455;28;20358;-83
2023/12/09 00:30:28;;;;;;;5.88;3.17;;;5.60;99.90;;;;;;4965199;28;20027;-82
2023/12/09 00:32:54;;;;;;;5.70;4.07;;;5.60;99.90;;;;;;4961764;28;20032;-83
2023/12/09 00:35:21;;;;;;;3.40;3.05;;;5.60;99.90;;;;;;4963583;28;20039;-83
2023/12/09 00:37:47;;;;;;;5.47;4.97;;;5.70;99.90;;;;;;4972777;28;20317;-81
2023/12/09 00:40:13;;;;;;;3.22;3.03;;;5.70;99.90;;;;;;4976119;28;20061;-82
2023/12/09 00:42:39;;;;;;;5.97;3.80;;;5.70;99.90;;;;;;4962434;28;20038;-83
2023/12/09 00:45:06;;;;;;;8.13;3.22;;;5.70;99.90;;;;;;4968957;28;20401;-83
2023/12/09 00:47:32;;;;;;;5.03;4.38;;;5.60;99.90;;;;;;4965400;28;20063;-83
2023/12/09 00:49:59;;;;;;;1.77;1.67;;;5.60;99.90;;;;;;4970614;28;20062;-83
2023/12/09 00:52:25;;;;;;;4.30;3.85;;;5.70;99.90;;;;;;4966884;28;20034;-81
2023/12/09 00:54:51;;;;;;;3.30;3.08;;;5.70;99.90;;;;;;4960974;28;20034;-83
2023/12/09 00:57:17;;;;;;;8.18;6.88;;;5.70;99.90;;;;;;4966766;28;20042;-83
2023/12/09 00:59:43;;;;;;;6.93;5.18;;;5.60;99.90;;;;;;4967882;28;20039;-83
2023/12/09 01:02:10;;;;;;;4.07;3.78;;;5.60;99.90;;;;;;4967365;28;20054;-83
2023/12/09 01:04:36;;;;;;;6.15;5.63;;;5.60;99.90;;;;;;4965087;28;20044;-82
2023/12/09 01:07:02;;;;;;;7.22;3.70;;;5.60;99.90;;;;;;4967982;28;20449;-83
2023/12/09 01:09:29;;;;;;;8.48;5.20;;;5.60;99.90;;;;;;4968406;28;20057;-80
2023/12/09 01:11:55;;;;;;;4.80;3.13;;;5.60;99.90;;;;;;4950274;28;20047;-82
2023/12/09 01:14:21;;;;;;;5.25;2.85;;;5.60;99.90;;;;;;4968501;28;20043;-82
2023/12/09 01:16:47;;;;;;;5.50;3.85;;;5.60;99.90;;;;;;4969341;28;20023;-82
2023/12/09 01:19:13;;;;;;;6.85;3.13;;;5.60;99.90;;;;;;4966942;28;20051;-82
2023/12/09 01:21:39;;;;;;;5.70;4.53;;;5.60;99.90;;;;;;4967255;28;20031;-82
2023/12/09 01:24:06;;;;;;;1.45;1.35;;;5.60;99.90;;;;;;4967957;28;20464;-82
2023/12/09 01:26:32;;;;;;;2.03;1.92;;;5.50;99.90;;;;;;4961883;28;20389;-82
2023/12/09 01:29:00;;;;;;;1.67;1.52;;;5.50;99.90;;;;;;4968085;28;20034;-82
2023/12/09 01:31:26;;;;;;;2.85;2.65;;;5.50;99.90;;;;;;4968227;28;20041;-83
2023/12/09 01:33:52;;;;;;;2.15;2.05;;;5.60;99.90;;;;;;4966453;28;20477;-82
2023/12/09 01:36:18;;;;;;;6.10;4.75;;;5.50;99.90;;;;;;4969542;28;20031;-82
2023/12/09 01:38:44;;;;;;;15.52;5.53;;;5.60;99.90;;;;;;4967138;28;20039;-82
2023/12/09 01:41:10;;;;;;;5.57;5.18;;;5.50;99.90;;;;;;4964604;28;20038;-81
2023/12/09 01:43:37;;;;;;;4.80;2.75;;;5.60;99.90;;;;;;4969067;28;20042;-82
2023/12/09 01:46:09;;;;;;;3.05;2.85;;;5.50;99.90;;;;;;4967457;28;20051;-82
2023/12/09 01:48:36;;;;;;;6.22;2.67;;;5.60;99.90;;;;;;4963588;28;20035;-82
2023/12/09 01:51:04;;;;;;;2.33;2.13;;;5.50;99.90;;;;;;4962958;28;20043;-82
2023/12/09 01:53:31;;;;;;;2.70;2.50;;;5.50;99.90;;;;;;4969760;28;20031;-80
2023/12/09 01:55:59;;;;;;;4.07;3.63;;;5.50;99.90;;;;;;4969568;28;20074;-82
2023/12/09 01:58:26;;;;;;;3.38;3.08;;;5.50;99.90;;;;;;4966389;28;20027;-82
2023/12/09 02:00:53;;;;;;;2.05;1.95;;;5.50;99.90;;;;;;4965583;28;20588;-81
2023/12/09 02:03:19;;;;;;;4.60;3.55;;;5.50;99.90;;;;;;4970240;28;20043;-81
2023/12/09 02:05:46;;;;;;;3.90;3.42;;;5.60;99.90;;;;;;4967049;28;20046;-81
2023/12/09 02:08:12;;;;;;;4.78;3.47;;;5.60;99.90;;;;;;4967049;28;20027;-81
2023/12/09 02:10:38;;;;;;;1.98;1.88;;;5.60;99.90;;;;;;4961696;28;20027;-81
2023/12/09 02:13:17;;;;;;;4.43;4.13;;;5.60;99.90;;;;;;4966038;28;20038;-81
2023/12/09 02:16:04;;;;;;;5.05;3.17;;;5.60;99.90;;;;;;4964818;28;20050;-81
2023/12/09 02:18:30;;;;;;;5.85;3.20;;;5.60;99.90;;;;;;4966664;28;20043;-80
2023/12/09 02:20:56;;;;;;;6.72;2.60;;;5.60;99.90;;;;;;4940141;28;20039;-81
2023/12/09 02:23:22;;;;;;;2.13;2.03;;;5.60;99.90;;;;;;4964267;28;20038;-80
2023/12/09 02:25:54;;;;;;;3.20;2.65;;;5.60;99.90;;;;;;4953144;28;20047;-81
2023/12/09 02:28:23;;;;;;;;;;;5.60;99.90;;;;;;4965572;28;20463;-81
2023/12/09 02:31:07;;;;;;;3.10;1.63;;;5.60;99.90;;;;;;4961477;28;19927;-80
2023/12/09 02:33:35;;;;;;;3.38;2.50;;;5.60;99.90;;;;;;4962651;28;20035;-80
2023/12/09 02:36:05;;;;;;;4.38;4.05;;;5.60;99.90;;;;;;4969565;28;20389;-81
2023/12/09 02:38:33;;;;;;;5.03;2.97;;;5.60;99.90;;;;;;4965617;28;20039;-80
2023/12/09 02:41:01;;;;;;;5.57;3.75;;;5.70;99.90;;;;;;4964796;28;20027;-81
2023/12/09 02:43:27;;;;;;;5.68;4.85;;;5.60;99.90;;;;;;4954132;28;20035;-81
2023/12/09 02:45:53;;;;;;;7.72;2.58;;;5.60;99.90;;;;;;4965684;28;20055;-81
2023/12/09 02:48:19;;;;;;;3.00;2.63;;;5.60;99.90;;;;;;4966709;28;20045;-81
2023/12/09 02:50:45;;;;;;;1.48;1.38;;;5.60;99.90;;;;;;4962604;28;20047;-80
2023/12/09 02:53:14;;;;;;;5.38;3.42;;;5.70;99.90;;;;;;4963037;28;20476;-81
2023/12/09 02:55:40;;;;;;;2.33;1.95;;;5.70;99.90;;;;;;4961578;28;20392;-81
2023/12/09 02:58:06;;;;;;;2.15;2.05;;;5.70;99.90;;;;;;4950824;28;20042;-81
2023/12/09 03:00:32;;;;;;;4.05;2.50;;;5.80;99.90;;;;;;4959255;28;20034;-80
2023/12/09 03:02:58;;;;;;;4.13;3.67;;;5.70;99.90;;;;;;4958993;28;20031;-81
2023/12/09 03:05:25;;;;;;;5.38;3.53;;;5.70;99.90;;;;;;4962123;28;20038;-81
2023/12/09 03:07:51;;;;;;;4.07;2.35;;;5.70;99.90;;;;;;4966860;28;20412;-81
2023/12/09 03:10:17;;;;;;;9.50;3.25;;;5.70;99.90;;;;;;4947655;28;20039;-81
2023/12/09 03:12:44;;;;;;;4.43;3.10;;;5.70;99.90;;;;;;4962839;28;20031;-81
2023/12/09 03:15:10;;;;;;;2.25;2.10;;;5.70;99.90;;;;;;4959657;28;20035;-81
2023/12/09 03:17:36;;;;;;;10.23;3.17;;;5.70;99.90;;;;;;4967783;28;20041;-80
2023/12/09 03:20:03;;;;;;;6.90;2.95;;;5.70;99.90;;;;;;4964286;28;20366;-81
2023/12/09 03:22:29;;;;;;;3.00;2.80;;;5.70;99.90;;;;;;4980928;28;20027;-80
2023/12/09 03:24:56;;;;;;;4.53;3.83;;;5.70;99.90;;;;;;4976082;28;20035;-80
2023/12/09 03:27:22;;;;;;;2.30;2.20;;;5.70;99.90;;;;;;4976766;28;20039;-81
2023/12/09 03:29:48;;;;;;;2.55;2.40;;;5.70;99.90;;;;;;4966160;28;20027;-81
2023/12/09 03:32:14;;;;;;;2.78;2.58;;;5.70;99.90;;;;;;4954789;28;20043;-81
2023/12/09 03:34:42;;;;;;;3.38;2.38;;;5.70;99.90;;;;;;4964120;28;20404;-81
2023/12/09 03:37:08;;;;;;;1.35;1.10;;;5.70;99.90;;;;;;4963584;28;20042;-81
2023/12/09 03:39:35;;;;;;;1.58;1.48;;;5.70;99.90;;;;;;4966090;28;20027;-80
2023/12/09 03:42:01;;;;;;;3.05;2.75;;;5.70;99.90;;;;;;4956879;28;20035;-80
2023/12/09 03:44:27;;;;;;;1.73;1.63;;;5.70;99.90;;;;;;4960832;28;20035;-81
2023/12/09 03:46:53;;;;;;;2.58;2.38;;;5.70;99.90;;;;;;4958422;28;20051;-81
2023/12/09 03:49:19;;;;;;;2.20;2.00;;;5.70;99.90;;;;;;4948295;28;20043;-81
2023/12/09 03:51:46;;;;;;;3.70;3.33;;;5.70;99.90;;;;;;4964925;28;20039;-81
2023/12/09 03:54:12;;;;;;;2.53;2.38;;;5.70;99.90;;;;;;4963449;28;20457;-81
2023/12/09 03:56:38;;;;;;;3.53;3.05;;;5.70;99.90;;;;;;4959467;28;20038;-80
2023/12/09 03:59:04;;;;;;;5.55;3.22;;;5.70;99.90;;;;;;4966316;28;20034;-81
2023/12/09 04:01:30;;;;;;;2.33;2.15;;;5.80;99.90;;;;;;4965313;28;20384;-81
2023/12/09 04:03:56;;;;;;;3.97;1.95;;;5.70;99.90;;;;;;4963586;28;20034;-81
2023/12/09 04:06:22;;;;;;;4.30;2.95;;;5.70;99.90;;;;;;4977434;28;20043;-81
2023/12/09 04:08:49;;;;;;;3.42;2.75;;;5.70;99.90;;;;;;4962410;28;20038;-81
2023/12/09 04:11:15;;;;;;;1.88;1.73;;;5.70;99.90;;;;;;4963742;28;20034;-81
2023/12/09 04:13:41;;;;;;;6.47;3.42;;;5.70;99.90;;;;;;4965888;28;20033;-80
2023/12/09 04:16:07;;;;;;;6.75;2.60;;;5.80;99.90;;;;;;4963209;28;20038;-80
2023/12/09 04:18:34;;;;;;;1.55;1.38;;;5.80;99.90;;;;;;4959879;28;20035;-81
2023/12/09 04:21:00;;;;;;;2.13;2.03;;;5.80;99.90;;;;;;4965563;28;20042;-81
2023/12/09 04:23:26;;;;;;;3.45;3.08;;;5.70;99.90;;;;;;4968213;28;20031;-81
2023/12/09 04:25:52;;;;;;;1.80;1.70;;;5.70;99.90;;;;;;4966252;28;20055;-81
2023/12/09 04:28:18;;;;;;;2.22;1.70;;;5.70;99.90;;;;;;4967157;28;20027;-81
2023/12/09 04:30:44;;;;;;;1.75;1.52;;;5.80;99.90;;;;;;4962543;28;20054;-80
2023/12/09 04:33:11;;;;;;;5.57;2.63;;;5.70;99.90;;;;;;4966443;28;20035;-81
2023/12/09 04:35:37;;;;;;;2.47;1.92;;;5.70;99.90;;;;;;4969391;28;20046;-79
2023/12/09 04:38:03;;;;;;;3.15;2.22;;;5.80;99.90;;;;;;4965735;28;20058;-81
2023/12/09 04:40:29;;;;;;;4.35;2.47;;;5.80;99.90;;;;;;4967947;28;20043;-80
2023/12/09 04:42:55;;;;;;;5.53;2.78;;;5.80;99.90;;;;;;4947161;28;20057;-80
2023/12/09 04:45:22;;;;;;;3.67;2.63;;;5.90;99.90;;;;;;4976236;28;20050;-80
2023/12/09 04:47:49;;;;;;;1.27;1.17;;;5.90;99.90;;;;;;4964755;28;20051;-80
2023/12/09 04:50:16;;;;;;;2.80;1.73;;;5.80;99.90;;;;;;4966304;28;20043;-81
2023/12/09 04:52:42;;;;;;;6.85;2.60;;;5.80;99.90;;;;;;4962778;28;20031;-80
2023/12/09 04:55:09;;;;;;;1.65;1.55;;;5.80;99.90;;;;;;4969381;28;20406;-80
2023/12/09 04:57:35;;;;;;;11.57;2.22;;;5.80;99.90;;;;;;4966567;28;20054;-80
2023/12/09 05:00:05;;;;;;;8.10;3.28;;;5.80;99.90;;;;;;4966780;28;20046;-81
2023/12/09 05:02:31;;;;;;;1.63;1.30;;;5.70;99.90;;;;;;4963760;28;20042;-81
2023/12/09 05:04:57;;;;;;;6.50;3.55;;;5.80;99.90;;;;;;4966447;28;20061;-80
2023/12/09 05:07:28;;;;;;;2.22;2.03;;;5.80;99.90;;;;;;4968826;28;20057;-81
2023/12/09 05:09:54;;;;;;;2.50;2.00;;;5.90;99.90;;;;;;4969054;28;20483;-80
2023/12/09 05:12:20;;;;;;;6.25;2.75;;;5.90;99.90;;;;;;4963202;28;20050;-80
2023/12/09 05:14:46;;;;;;;2.65;1.80;;;5.90;99.90;;;;;;4945522;28;20386;-80
2023/12/09 05:17:12;;;;;;;4.40;2.88;;;5.90;99.90;;;;;;4968427;28;20190;-81
2023/12/09 05:19:38;;;;;;;4.90;3.42;;;5.90;99.90;;;;;;4949521;28;20046;-79
2023/12/09 05:22:05;;;;;;;2.10;1.67;;;5.90;99.90;;;;;;4961582;28;20043;-81
2023/12/09 05:24:31;;;;;;;1.30;1.00;;;6.00;99.90;;;;;;4943702;28;20047;-81
2023/12/09 05:26:57;;;;;;;8.18;2.70;;;5.90;99.90;;;;;;4968534;28;20043;-81
2023/12/09 05:29:24;;;;;;;5.28;1.17;;;6.00;99.90;;;;;;4967615;28;20043;-80
2023/12/09 05:31:50;;;;;;;3.45;2.95;;;6.00;99.90;;;;;;4969492;28;20031;-80
2023/12/09 05:34:16;;;;;;;2.58;2.38;;;6.00;99.90;;;;;;4963444;28;20034;-80
2023/12/09 05:36:42;;;;;;;4.75;3.42;;;6.10;99.90;;;;;;4935218;28;20053;-80
2023/12/09 05:39:09;;;;;;;3.17;2.88;;;6.10;99.90;;;;;;4967041;28;20500;-80
2023/12/09 05:41:35;;;;;;;3.55;3.08;;;6.10;99.90;;;;;;4969645;28;20483;-80
2023/12/09 05:44:01;;;;;;;2.60;1.92;;;6.10;99.90;;;;;;4966786;28;20038;-80
2023/12/09 05:46:28;;;;;;;7.85;3.17;;;6.10;99.90;;;;;;4966545;28;20484;-80
2023/12/09 05:48:54;;;;;;;5.68;3.80;;;6.10;99.90;;;;;;4967158;28;20042;-81
2023/12/09 05:51:20;;;;;;;1.63;1.60;;;6.10;99.90;;;;;;4968320;28;20097;-80
2023/12/09 05:53:46;;;;;;;4.25;2.75;;;6.10;99.90;;;;;;4961604;28;20035;-80
2023/12/09 05:56:12;;;;;;;2.08;1.98;;;6.10;99.90;;;;;;4962147;28;20031;-81
2023/12/09 05:58:39;;;;;;;3.50;2.28;;;6.10;99.90;;;;;;4967768;28;20047;-79
2023/12/09 06:01:06;;;;;;;2.95;2.78;;;6.10;99.90;;;;;;4967868;28;20038;-81
2023/12/09 06:03:33;;;;;;;3.83;3.13;;;6.10;99.90;;;;;;4965569;28;20042;-80
2023/12/09 06:05:59;;;;;;;3.22;1.23;;;6.10;99.90;;;;;;4962652;28;20709;-81
2023/12/09 06:08:25;;;;;;;3.38;3.08;;;6.10;99.90;;;;;;4972755;28;20031;-81
2023/12/09 06:10:51;;;;;;;5.10;3.45;;;6.10;99.90;;;;;;4968912;28;20380;-81
2023/12/09 06:13:18;;;;;;;5.28;3.72;;;6.10;99.90;;;;;;4980536;28;20031;-80
2023/12/09 06:15:44;;;;;;;7.32;4.38;;;6.10;99.90;;;;;;4983604;28;20133;-80
2023/12/09 06:18:10;;;;;;;7.38;6.63;;;6.10;99.90;;;;;;4944947;28;20393;-81
2023/12/09 06:20:36;;;;;;;19.65;11.52;;;6.10;99.90;;;;;;4953332;28;20035;-81
2023/12/09 06:23:02;;;;;;;23.40;17.65;;;6.10;99.90;;;;;;4964619;28;20116;-81
2023/12/09 06:25:28;;;;;;;8.40;7.70;;;6.00;99.90;;;;;;4962571;28;20484;-81
2023/12/09 06:27:55;;;;;;;5.10;4.70;;;6.00;99.90;;;;;;4962421;28;20035;-80
2023/12/09 06:30:21;;;;;;;8.65;5.40;;;6.00;99.90;;;;;;4966072;28;20046;-80
2023/12/09 06:32:47;;;;;;;5.03;4.53;;;5.90;99.90;;;;;;4965204;28;20058;-81
2023/12/09 06:35:13;;;;;;;9.57;4.97;;;5.90;99.90;;;;;;4967581;28;20407;-82
2023/12/09 06:37:39;;;;;;;2.17;2.08;;;5.90;99.90;;;;;;4946144;28;20043;-81
2023/12/09 06:40:06;;;;;;;4.70;3.70;;;6.00;99.90;;;;;;4963859;28;20142;-82
2023/12/09 06:42:32;;;;;;;1.80;1.70;;;6.00;99.90;;;;;;4965283;28;20042;-82
2023/12/09 06:44:59;;;;;;;11.05;8.55;;;6.00;99.90;;;;;;4964262;28;20046;-82
2023/12/09 06:47:25;;;;;;;11.20;8.18;;;6.00;99.90;;;;;;4964898;28;20109;-89
2023/12/09 06:49:51;;;;;;;12.05;11.00;;;6.00;99.90;;;;;;4962890;28;20050;-81
2023/12/09 06:52:17;;;;;;;15.13;10.23;;;6.00;99.90;;;;;;4958864;28;20047;-82
2023/12/09 06:54:43;;;;;;;6.43;4.30;;;6.00;99.90;;;;;;4957074;28;20373;-87
2023/12/09 06:57:09;;;;;;;4.10;3.55;;;6.00;99.90;;;;;;4949266;28;20038;-88
2023/12/09 06:59:35;;;;;;;12.25;5.40;;;6.00;99.90;;;;;;4937890;28;20055;-85
2023/12/09 07:02:02;;;;;;;6.90;4.88;;;6.00;99.90;;;;;;4951523;28;20039;-86
2023/12/09 07:04:28;;;;;;;7.53;5.18;;;6.10;99.90;;;;;;4966255;28;20390;-86
2023/12/09 07:07:00;;;;;;;4.50;2.90;;;6.10;99.90;;;;;;4962096;28;20412;-87
2023/12/09 07:09:26;;;;;;;3.55;3.25;;;6.10;99.90;;;;;;4960654;28;20050;-88
2023/12/09 07:11:52;;;;;;;3.40;2.80;;;6.10;99.90;;;;;;4961048;28;20039;-79
2023/12/09 07:14:19;;;;;;;5.80;4.10;;;6.10;99.90;;;;;;4963923;28;20042;-78
2023/12/09 07:16:45;;;;;;;5.35;3.30;;;6.10;99.90;;;;;;4966485;28;20041;-79
2023/12/09 07:19:11;;;;;;;4.90;4.50;;;6.10;99.90;;;;;;4960675;28;20041;-78
2023/12/09 07:21:37;;;;;;;15.20;4.53;;;6.00;99.90;;;;;;4966844;28;20030;-78
2023/12/09 07:24:04;;;;;;;6.47;4.18;;;5.90;99.90;;;;;;4965016;28;20031;-78
2023/12/09 07:26:30;;;;;;;2.67;2.13;;;5.90;99.90;;;;;;4964147;28;20046;-78
2023/12/09 07:28:56;;;;;;;3.10;2.53;;;5.90;99.90;;;;;;4962778;28;20027;-78
2023/12/09 07:31:22;;;;;;;1.83;1.73;;;5.90;99.90;;;;;;4959139;28;20097;-78
2023/12/09 07:33:49;;;;;;;3.38;2.42;;;5.90;99.90;;;;;;4962667;28;20031;-77
2023/12/09 07:36:15;;;;;;;4.65;3.05;;;5.90;99.90;;;;;;4963278;28;20027;-77
2023/12/09 07:38:41;;;;;;;2.72;2.08;;;5.90;99.90;;;;;;4945584;28;20043;-77
2023/12/09 07:41:07;;;;;;;11.57;5.00;;;5.90;99.90;;;;;;4962722;28;20054;-77
2023/12/09 07:43:33;;;;;;;1.38;1.30;;;5.90;99.90;;;;;;4959887;28;20027;-77
2023/12/09 07:45:59;;;;;;;5.95;3.55;;;5.90;99.90;;;;;;4959213;28;20059;-79
2023/12/09 07:48:26;;;;;;;3.08;2.40;;;5.90;99.90;;;;;;4964540;28;20027;-77
2023/12/09 07:50:52;;;;;;;3.22;2.45;;;5.90;99.90;;;;;;4963672;28;20042;-77
2023/12/09 07:53:18;;;;;;;2.55;2.20;;;5.90;99.90;;;;;;4939550;28;20047;-78
2023/12/09 07:55:44;;;;;;;1.92;1.83;;;6.00;99.90;;;;;;4963742;28;20047;-78
2023/12/09 07:58:11;;;;;;;3.08;2.40;;;6.00;99.90;;;;;;4964896;28;20041;-77
2023/12/09 08:00:37;;;;;;;13.02;4.15;;;6.10;99.90;;;;;;4963722;28;20045;-77
2023/12/09 08:03:04;;;;;;;1.67;1.58;;;6.20;99.90;;;;;;4960131;28;20035;-77
2023/12/09 08:05:34;;;;;;;7.28;4.88;;;6.20;99.90;;;;;;4961574;28;20412;-78
2023/12/09 08:08:01;;;;;;;7.32;2.58;;;6.20;99.90;;;;;;4960419;28;20046;-78
2023/12/09 08:10:28;;;;;;;3.92;3.03;;;6.30;99.90;;;;;;4964601;28;20400;-77
2023/12/09 08:12:54;;;;;;;3.65;2.47;;;6.30;99.90;;;;;;4961843;28;20047;-78
2023/12/09 08:15:20;;;;;;;2.00;1.88;;;6.30;99.90;;;;;;4960607;28;20046;-77
2023/12/09 08:17:47;;;;;;;3.47;3.17;;;6.30;99.90;;;;;;4944283;28;20035;-78
2023/12/09 08:20:13;;;;;;;3.83;3.20;;;6.40;99.90;;;;;;4962344;28;20132;-77
2023/12/09 08:22:39;;;;;;;12.20;3.90;;;6.50;99.90;;;;;;4962835;28;20035;-77
2023/12/09 08:25:12;;;;;;;2.17;2.03;;;6.50;99.90;;;;;;4957509;28;20023;-79
2023/12/09 08:27:39;;;;;;;4.47;3.17;;;6.60;99.90;;;;;;4962274;28;20661;-78
2023/12/09 08:30:12;;;;;;;5.18;3.35;;;6.60;99.90;;;;;;4963213;28;20031;-79
2023/12/09 08:32:42;;;;;;;5.57;2.53;;;6.70;99.90;;;;;;4961416;28;20041;-78
2023/12/09 08:35:09;;;;;;;3.40;3.05;;;6.70;99.90;;;;;;4959640;28;20034;-79
2023/12/09 08:37:37;;;;;;;5.18;3.55;;;6.70;99.90;;;;;;4962818;28;20042;-79
2023/12/09 08:40:11;;;;;;;2.90;1.88;;;6.70;99.90;;;;;;4965543;28;20417;-78
2023/12/09 08:42:42;;;;;;;11.52;4.55;;;6.80;99.90;;;;;;4969626;28;20035;-78
2023/12/09 08:45:10;;;;;;;2.50;1.92;;;6.80;99.90;;;;;;4965081;28;20042;-78
2023/12/09 08:47:37;;;;;;;4.00;2.70;;;6.80;99.90;;;;;;4960683;28;20051;-79
2023/12/09 08:50:06;;;;;;;6.60;3.10;;;6.80;99.90;;;;;;4960267;28;20035;-79
2023/12/09 08:52:33;;;;;;;2.20;1.85;;;6.90;99.90;;;;;;4966366;28;20035;-78
2023/12/09 08:55:00;;;;;;;2.38;1.83;;;6.90;99.90;;;;;;4964327;28;20031;-78
2023/12/09 08:57:26;;;;;;;1.67;1.52;;;7.10;99.90;;;;;;4955298;28;20046;-78
2023/12/09 08:59:53;;;;;;;3.13;2.83;;;7.00;99.90;;;;;;4968036;28;20031;-78
2023/12/09 09:02:21;;;;;;;3.70;2.97;;;7.10;99.90;;;;;;4983680;28;20041;-77
2023/12/09 09:04:47;;;;;;;3.67;2.05;;;7.10;99.90;;;;;;4966161;28;20038;-79
2023/12/09 09:07:14;;;;;;;2.72;2.50;;;7.10;99.90;;;;;;4965719;28;20046;-78
2023/12/09 09:09:40;;;;;;;3.35;2.50;;;7.10;99.90;;;;;;4965039;28;20469;-78
2023/12/09 09:12:07;;;;;;;10.35;3.08;;;7.10;99.90;;;;;;4967582;28;20271;-78
2023/12/09 09:14:36;;;;;;;4.90;3.88;;;7.20;99.90;;;;;;4967731;28;20043;-77
2023/12/09 09:17:03;;;;;;;2.75;1.85;;;7.20;99.90;;;;;;4967677;28;20050;-77
2023/12/09 09:19:30;;;;;;;1.95;1.58;;;7.20;99.90;;;;;;4948944;28;20031;-78
2023/12/09 09:21:57;;;;;;;2.50;2.30;;;7.20;99.90;;;;;;4964153;28;20481;-78
2023/12/09 09:24:23;;;;;;;3.60;2.50;;;7.20;99.90;;;;;;4968895;28;20034;-76
2023/12/09 09:26:50;;;;;;;6.93;3.83;;;7.20;99.90;;;;;;4965025;28;20043;-77
2023/12/09 09:29:16;;;;;;;3.80;3.53;;;7.20;99.90;;;;;;4961641;28;20364;-78
2023/12/09 09:31:42;;;;;;;3.42;3.13;;;7.30;99.90;;;;;;4962775;28;20031;-77
2023/12/09 09:34:08;;;;;;;11.18;3.35;;;7.40;99.90;;;;;;4930517;28;20039;-78
2023/12/09 09:36:35;;;;;;;3.60;3.30;;;7.40;99.90;;;;;;4966769;28;20042;-77
2023/12/09 09:39:01;;;;;;;4.72;2.70;;;7.40;99.90;;;;;;4962509;28;20035;-79
2023/12/09 09:41:49;;;;;;;3.80;3.00;;;7.50;99.90;;;;;;4967247;28;20042;-77
2023/12/09 09:44:21;;;;;;;5.63;2.25;;;7.60;99.90;;;;;;4965137;28;20046;-78
2023/12/09 09:46:52;;;;;;;7.38;1.48;;;7.60;99.90;;;;;;4966939;28;20050;-76
2023/12/09 09:49:20;;;;;;;3.58;3.33;;;7.60;99.90;;;;;;4966004;28;20035;-76
2023/12/09 09:51:51;;;;;;;1.23;1.08;;;7.70;99.90;;;;;;4963598;28;20043;-76
2023/12/09 09:54:23;;;;;;;6.22;2.40;;;7.60;99.90;;;;;;4965446;28;20039;-77
2023/12/09 09:56:50;;;;;;;3.40;2.42;;;7.60;99.90;;;;;;4967774;28;20042;-78
2023/12/09 09:59:17;;;;;;;2.08;1.83;;;7.70;99.90;;;;;;4962625;28;20045;-76
2023/12/09 10:01:46;;;;;;;4.10;2.38;;;7.70;99.90;;;;;;4960682;28;20043;-76
2023/12/09 10:04:13;;;;;;;4.57;2.70;;;7.70;99.90;;;;;;4966926;28;20372;-76
2023/12/09 10:06:41;;;;;;;4.57;1.65;;;7.60;96.80;;;;;;4969332;28;20041;-77
2023/12/09 10:09:07;;;;;;;9.75;3.80;;;7.60;99.90;;;;;;4945530;28;20492;-76
2023/12/09 10:11:33;;;;;;;1.58;1.48;;;7.70;99.90;;;;;;4965497;28;20036;-77
2023/12/09 10:14:00;;;;;;;0.68;0.68;;;7.70;99.90;;;;;;4962121;28;20039;-77
2023/12/09 10:16:26;;;;;;;1.60;1.20;;;7.80;99.90;;;;;;4966617;28;20046;-77
2023/12/09 10:18:53;;;;;;;8.95;3.70;;;7.70;85.50;;;;;;4966332;28;20039;-77
2023/12/09 10:21:20;;;;;;;1.45;1.35;;;7.70;77.40;;;;;;4966188;28;20043;-77
2023/12/09 10:23:46;;;;;;;7.35;2.50;;;7.80;42.30;;;;;;4963438;28;20027;-77
2023/12/09 10:26:14;;;;;;;1.20;1.10;;;7.90;58.10;;;;;;4962043;28;20047;-77
2023/12/09 10:28:40;;;;;;;2.85;2.28;;;7.90;1.00;;;;;;4967317;28;20046;-77
2023/12/09 10:31:08;;;;;;;0.82;0.82;;;7.90;1.00;;;;;;4963492;28;20046;-77
2023/12/09 10:33:34;;;;;;;1.98;1.73;;;7.90;1.00;;;;;;4961731;28;20047;-77
2023/12/09 10:36:01;;;;;;;3.75;2.28;;;8.00;1.00;;;;;;4958300;28;20035;-78
2023/12/09 10:38:28;;;;;;;2.50;2.30;;;7.90;1.00;;;;;;4967523;28;20038;-78
2023/12/09 10:40:54;;;;;;;9.82;3.53;;;8.00;1.00;;;;;;4964643;28;20054;-78
2023/12/09 10:43:20;;;;;;;3.33;1.85;;;7.90;1.00;;;;;;4968874;28;20035;-78
2023/12/09 10:45:47;;;;;;;2.85;2.33;;;8.00;1.00;;;;;;4962091;28;20495;-78
2023/12/09 10:48:14;;;;;;;2.50;1.50;;;8.10;1.00;;;;;;4963706;28;20039;-77
2023/12/09 10:50:44;;;;;;;5.28;1.98;;;8.10;1.00;;;;;;4967651;28;20499;-78
2023/12/09 10:53:11;;;;;;;10.25;1.42;;;8.00;1.00;;;;;;4969904;28;20038;-77
2023/12/09 10:55:37;;;;;;;1.70;1.20;;;8.00;1.00;;;;;;4964705;28;20480;-77
2023/12/09 10:58:05;;;;;;;14.20;1.83;;;7.90;1.00;;;;;;4958903;28;20492;-78
2023/12/09 11:00:33;;;;;;;2.45;2.08;;;8.00;1.00;;;;;;4964791;28;20039;-78
2023/12/09 11:03:00;;;;;;;0.40;0.40;;;8.00;1.00;;;;;;4967375;28;20376;-77
2023/12/09 11:05:27;;;;;;;2.83;1.85;;;8.00;1.00;;;;;;4967046;28;20054;-77
2023/12/09 11:07:55;;;;;;;0.95;0.95;;;8.10;1.00;;;;;;4944220;28;20065;-78
2023/12/09 11:10:21;;;;;;;1.52;1.42;;;8.10;1.00;;;;;;4955043;28;20035;-77
2023/12/09 11:12:48;;;;;;;4.95;1.35;;;8.10;1.00;;;;;;4957826;28;20031;-77
2023/12/09 11:15:15;;;;;;;1.05;0.95;;;8.10;1.00;;;;;;4950653;28;20420;-80
2023/12/09 11:17:45;;;;;;;1.05;1.02;;;8.10;1.00;;;;;;4942141;28;20045;-79
2023/12/09 11:20:15;;;;;;;4.63;1.25;;;8.10;1.00;;;;;;4961615;28;20602;-76
2023/12/09 11:22:43;;;;;;;5.00;1.38;;;8.10;1.00;;;;;;4970407;28;20026;-75
2023/12/09 11:25:42;;;;;;;0.95;0.95;;;8.10;1.00;;;;;;4956862;28;20051;-76
2023/12/09 11:28:12;;;;;;;1.17;1.02;;;8.00;1.00;;;;;;4963994;28;20051;-75
2023/12/09 11:30:43;;;;;;;0.75;0.65;;;8.00;1.00;;;;;;4953451;28;20035;-75
2023/12/09 11:33:10;;;;;;;1.08;1.00;;;8.00;1.00;;;;;;4969095;28;20042;-75
2023/12/09 11:35:37;;;;;;;0.30;0.30;;;8.10;1.00;;;;;;4971085;28;20027;-75
2023/12/09 11:38:05;;;;;;;2.63;1.05;;;8.20;1.00;;;;;;4964625;28;20026;-75
2023/12/09 11:40:33;;;;;;;1.60;1.35;;;8.30;1.00;;;;;;4958877;28;20481;-74
2023/12/09 11:43:03;;;;;;;0.63;0.63;;;8.40;1.00;;;;;;4973424;28;20045;-74
2023/12/09 11:45:29;;;;;;;0.80;0.80;;;8.60;1.00;;;;;;4969824;28;20031;-75
2023/12/09 11:47:57;;;;;;;1.15;1.13;;;8.70;99.90;;;;;;4980946;28;20057;-75
2023/12/09 11:50:24;;;;;;;0.45;0.45;;;8.60;99.90;;;;;;4970821;28;20039;-75
2023/12/09 11:52:51;;;;;;;0.40;0.40;;;8.60;99.90;;;;;;4969967;28;20028;-75
2023/12/09 11:55:17;;;;;;;0.32;0.32;;;8.50;99.90;;;;;;4965638;28;20031;-75
2023/12/09 11:57:44;;;;;;;3.92;1.38;;;8.40;99.90;;;;;;4947568;28;20042;-77
2023/12/09 12:00:13;;;;;;;0.65;0.65;;;8.40;99.90;;;;;;4955866;28;20096;-75
2023/12/09 12:02:42;;;;;;;1.50;1.40;;;8.50;99.90;;;;;;4965462;28;20461;-75
2023/12/09 12:05:10;;;;;;;0.73;0.73;;;8.50;99.90;;;;;;4963492;28;20038;-75
2023/12/09 12:07:37;;;;;;;1.95;0.93;;;8.50;99.90;;;;;;4962159;28;20476;-75
2023/12/09 12:10:06;;;;;;;0.65;0.55;;;8.50;99.90;;;;;;4959734;28;20032;-75
2023/12/09 12:12:33;;;;;;;0.55;0.55;;;8.40;99.90;;;;;;4964411;28;20393;-75
2023/12/09 12:15:00;;;;;;;0.63;0.63;;;8.40;99.90;;;;;;4964041;28;20050;-75
2023/12/09 12:17:28;;;;;;;0.30;0.30;;;8.30;99.90;;;;;;4966645;28;20416;-74
2023/12/09 12:19:55;;;;;;;2.20;1.13;;;8.30;1.00;;;;;;4948758;28;20067;-77
2023/12/09 12:22:21;;;;;;;1.95;0.95;;;8.30;99.90;;;;;;4959507;28;20397;-74
2023/12/09 12:24:48;;;;;;;0.95;0.95;;;8.40;99.90;;;;;;4963658;28;20039;-74
2023/12/09 12:27:14;;;;;;;0.70;0.70;;;8.40;99.90;;;;;;4967183;28;20396;-75
2023/12/09 12:29:41;;;;;;;0.20;0.20;;;8.50;99.90;;;;;;4961679;28;20038;-75
2023/12/09 12:32:07;;;;;;;0.65;0.57;;;8.50;99.90;;;;;;4963635;28;20096;-76
2023/12/09 12:34:34;;;;;;;0.63;0.63;;;8.60;99.90;;;;;;4963568;28;20058;-76
2023/12/09 12:37:00;;;;;;;0.60;0.60;;;8.60;99.90;;;;;;4971645;28;20050;-75
2023/12/09 12:39:26;;;;;;;0.70;0.70;;;8.70;99.90;;;;;;4965828;28;20031;-76
2023/12/09 12:41:52;;;;;;;0.17;0.17;;;8.60;99.90;;;;;;4969314;28;20042;-75
2023/12/09 12:44:20;;;;;;;0.50;0.50;;;8.60;99.90;;;;;;4964389;28;20341;-76
2023/12/09 12:46:46;;;;;;;1.08;1.02;;;8.60;99.90;;;;;;4968587;28;20485;-77
2023/12/09 12:49:12;;;;;;;0.52;0.38;;;8.50;99.90;;;;;;4964973;28;20054;-76
2023/12/09 12:51:39;;;;;;;0.10;0.10;;;8.50;99.90;;;;;;4966221;28;20034;-77
2023/12/09 12:54:05;;;;;;;0.40;0.30;;;8.50;99.90;;;;;;4961887;28;20396;-76
2023/12/09 12:56:31;;;;;;;0.30;0.30;;;8.50;99.90;;;;;;4964700;28;20039;-76